createdAt,value
2017-07-08T00:02:03.614Z,67.15
2017-07-08T00:04:31.180Z,67.21
2017-07-08T00:06:58.739Z,67.05
2017-07-08T00:09:26.361Z,66.82
2017-07-08T00:11:53.908Z,66.92
2017-07-08T00:14:21.472Z,67.07
2017-07-08T00:16:49.081Z,66.29
2017-07-08T00:19:16.692Z,67.05
2017-07-08T00:21:44.265Z,68.11
2017-07-08T00:24:11.815Z,67.73
2017-07-08T00:26:39.373Z,67.44
2017-07-08T00:29:06.945Z,66.17
2017-07-08T00:31:34.467Z,65.25
2017-07-08T00:34:02.428Z,65.57
2017-07-08T00:36:30.037Z,64.97
2017-07-08T00:38:57.576Z,65.89
2017-07-08T00:41:25.101Z,66.77
2017-07-08T00:43:52.663Z,67.66
2017-07-08T00:46:20.180Z,68.58
2017-07-08T00:48:47.784Z,68.63
2017-07-08T00:51:15.356Z,68.92
2017-07-08T00:53:42.898Z,68.71
2017-07-08T00:56:10.604Z,69.15
2017-07-08T00:58:38.133Z,68.18
2017-07-08T01:01:05.700Z,68.21
2017-07-08T01:03:33.258Z,69.78
2017-07-08T01:06:00.792Z,69.50
2017-07-08T01:08:28.341Z,68.80
2017-07-08T01:10:55.903Z,69.60
2017-07-08T01:13:23.427Z,70.34
2017-07-08T01:15:50.991Z,69.24
2017-07-08T01:18:18.533Z,69.12
2017-07-08T01:20:46.100Z,70.54
2017-07-08T01:23:13.627Z,71.00
2017-07-08T01:25:41.175Z,70.37
2017-07-08T01:28:08.707Z,69.47
2017-07-08T01:30:36.264Z,68.86
2017-07-08T01:33:03.786Z,68.74
2017-07-08T01:35:31.312Z,69.17
2017-07-08T01:37:58.867Z,69.84
2017-07-08T01:40:26.380Z,71.18
2017-07-08T01:42:53.933Z,71.19
2017-07-08T01:45:21.444Z,71.01
2017-07-08T01:47:49.089Z,71.82
2017-07-08T01:50:16.638Z,70.94
2017-07-08T01:52:44.220Z,70.03
2017-07-08T01:55:11.931Z,69.76
2017-07-08T01:57:39.476Z,69.79
2017-07-08T02:00:06.997Z,72.04
2017-07-08T02:02:34.536Z,71.16
2017-07-08T02:05:02.087Z,71.49
2017-07-08T02:07:29.659Z,71.32
2017-07-08T02:09:57.256Z,71.74
2017-07-08T02:12:24.787Z,71.11
2017-07-08T02:14:52.499Z,71.08
2017-07-08T02:17:20.049Z,70.97
2017-07-08T02:19:47.591Z,70.33
2017-07-08T02:22:15.119Z,69.73
2017-07-08T02:24:42.831Z,69.74
2017-07-08T02:27:10.378Z,70.41
2017-07-08T02:29:37.939Z,72.75
2017-07-08T02:32:05.508Z,73.01
2017-07-08T02:34:33.115Z,72.77
2017-07-08T02:37:00.656Z,72.62
2017-07-08T02:39:28.228Z,74.05
2017-07-08T02:41:55.768Z,74.88
2017-07-08T02:44:23.323Z,75.31
2017-07-08T02:46:50.896Z,75.88
2017-07-08T02:49:18.451Z,75.77
2017-07-08T02:51:45.984Z,75.48
2017-07-08T02:54:13.560Z,74.81
2017-07-08T02:56:41.104Z,74.21
2017-07-08T02:59:08.720Z,74.04
2017-07-08T03:01:36.294Z,73.22
2017-07-08T03:04:03.850Z,74.46
2017-07-08T03:06:31.382Z,75.73
2017-07-08T03:08:58.962Z,76.02
2017-07-08T03:11:26.484Z,76.24
2017-07-08T03:13:54.100Z,76.14
2017-07-08T03:16:21.616Z,75.18
2017-07-08T03:18:49.163Z,75.67
2017-07-08T03:21:16.686Z,75.89
2017-07-08T03:23:44.247Z,75.94
2017-07-08T03:26:11.776Z,76.01
2017-07-08T03:28:39.361Z,76.94
2017-07-08T03:31:06.891Z,77.46
2017-07-08T03:33:34.449Z,77.18
2017-07-08T03:36:01.985Z,77.92
2017-07-08T03:38:29.585Z,77.38
2017-07-08T03:40:57.119Z,77.00
2017-07-08T03:43:24.758Z,76.33
2017-07-08T03:45:52.289Z,77.27
2017-07-08T03:48:19.821Z,77.05
2017-07-08T03:50:47.497Z,77.24
2017-07-08T03:53:15.138Z,76.28
2017-07-08T03:55:42.683Z,75.20
2017-07-08T03:58:10.397Z,74.81
2017-07-08T04:00:37.957Z,74.37
2017-07-08T04:03:05.495Z,74.25
2017-07-08T04:05:33.063Z,73.98
2017-07-08T04:08:00.591Z,73.73
2017-07-08T04:10:28.156Z,74.04
2017-07-08T04:12:55.780Z,73.75
2017-07-08T04:15:23.347Z,73.35
2017-07-08T04:17:50.883Z,73.45
2017-07-08T04:20:18.456Z,74.20
2017-07-08T04:22:45.985Z,73.38
2017-07-08T04:25:13.740Z,72.92
2017-07-08T04:27:41.252Z,72.91
2017-07-08T04:30:08.831Z,72.50
2017-07-08T04:32:36.402Z,72.98
2017-07-08T04:35:04.042Z,73.46
2017-07-08T04:37:31.648Z,74.39
2017-07-08T04:39:59.224Z,74.70
2017-07-08T04:42:26.841Z,74.60
2017-07-08T04:44:54.407Z,74.05
2017-07-08T04:47:21.979Z,73.58
2017-07-08T04:49:49.531Z,73.34
2017-07-08T04:52:17.097Z,74.12
2017-07-08T04:54:44.723Z,75.01
2017-07-08T04:57:12.251Z,75.94
2017-07-08T04:59:39.814Z,75.10
2017-07-08T05:02:07.332Z,74.73
2017-07-08T05:04:34.882Z,73.80
2017-07-08T05:07:02.414Z,73.03
2017-07-08T05:09:29.984Z,73.22
2017-07-08T05:11:57.492Z,76.00
2017-07-08T05:14:25.039Z,76.61
2017-07-08T05:16:52.560Z,76.79
2017-07-08T05:19:20.145Z,77.11
2017-07-08T05:21:47.668Z,75.68
2017-07-08T05:24:15.220Z,74.34
2017-07-08T05:26:42.759Z,75.08
2017-07-08T05:29:10.319Z,73.95
2017-07-08T05:31:37.884Z,74.03
2017-07-08T05:34:05.415Z,73.79
2017-07-08T05:36:32.962Z,74.67
2017-07-08T05:39:00.488Z,75.77
2017-07-08T05:41:28.016Z,76.98
2017-07-08T05:43:55.570Z,77.23
2017-07-08T05:46:23.089Z,76.61
2017-07-08T05:48:50.638Z,74.67
2017-07-08T05:51:18.173Z,74.61
2017-07-08T05:53:45.717Z,73.86
2017-07-08T05:56:13.246Z,73.92
2017-07-08T05:58:40.953Z,73.66
2017-07-08T06:01:08.469Z,73.14
2017-07-08T06:03:36.000Z,73.39
2017-07-08T06:06:03.697Z,73.28
2017-07-08T06:08:31.299Z,72.78
2017-07-08T06:10:58.852Z,73.60
2017-07-08T06:13:26.469Z,73.19
2017-07-08T06:15:54.108Z,74.11
2017-07-08T06:18:21.631Z,74.64
2017-07-08T06:20:49.195Z,74.37
2017-07-08T06:23:16.726Z,73.20
2017-07-08T06:25:44.285Z,72.38
2017-07-08T06:28:11.817Z,72.63
2017-07-08T06:30:39.430Z,72.14
2017-07-08T06:33:07.025Z,71.41
2017-07-08T06:35:34.572Z,71.65
2017-07-08T06:38:02.118Z,72.91
2017-07-08T06:40:29.692Z,72.17
2017-07-08T06:42:57.217Z,72.47
2017-07-08T06:45:24.944Z,72.36
2017-07-08T06:47:52.494Z,71.94
2017-07-08T06:50:20.024Z,71.09
2017-07-08T06:52:47.632Z,71.42
2017-07-08T06:55:15.168Z,71.55
2017-07-08T06:57:42.740Z,71.77
2017-07-08T07:00:10.284Z,71.27
2017-07-08T07:02:37.900Z,71.52
2017-07-08T07:05:05.427Z,70.93
2017-07-08T07:07:33.016Z,70.58
2017-07-08T07:10:00.611Z,70.33
2017-07-08T07:12:28.196Z,70.36
2017-07-08T07:14:55.731Z,70.87
2017-07-08T07:17:23.319Z,70.41
2017-07-08T07:19:50.843Z,70.40
2017-07-08T07:22:18.585Z,69.38
2017-07-08T07:24:46.147Z,70.31
2017-07-08T07:27:13.672Z,69.53
2017-07-08T07:29:41.229Z,69.22
2017-07-08T07:32:08.781Z,68.99
2017-07-08T07:34:36.360Z,70.31
2017-07-08T07:37:03.899Z,70.22
2017-07-08T07:39:31.476Z,68.69
2017-07-08T07:41:58.989Z,68.78
2017-07-08T07:44:26.546Z,68.70
2017-07-08T07:46:54.071Z,68.94
2017-07-08T07:49:21.640Z,68.40
2017-07-08T07:51:49.166Z,68.79
2017-07-08T07:54:16.735Z,69.05
2017-07-08T07:56:44.313Z,68.14
2017-07-08T07:59:11.884Z,67.70
2017-07-08T08:01:39.412Z,66.67
2017-07-08T08:04:06.940Z,67.05
2017-07-08T08:06:34.591Z,68.18
2017-07-08T08:09:02.188Z,67.66
2017-07-08T08:11:29.708Z,67.86
2017-07-08T08:13:57.263Z,67.07
2017-07-08T08:16:24.804Z,64.60
2017-07-08T08:18:52.389Z,64.38
2017-07-08T08:21:20.024Z,65.27
2017-07-08T08:23:47.676Z,65.57
2017-07-08T08:26:15.212Z,63.45
2017-07-08T08:28:42.758Z,63.67
2017-07-08T08:31:10.315Z,61.17
2017-07-08T08:33:37.849Z,61.82
2017-07-08T08:36:05.417Z,62.37
2017-07-08T08:38:32.932Z,60.68
2017-07-08T08:41:00.484Z,58.54
2017-07-08T08:43:28.151Z,59.51
2017-07-08T08:45:55.724Z,60.55
2017-07-08T08:48:23.300Z,59.72
2017-07-08T08:50:50.840Z,57.43
2017-07-08T08:53:18.320Z,55.04
2017-07-08T08:55:45.888Z,58.38
2017-07-08T08:58:13.421Z,57.95
2017-07-08T09:00:40.979Z,58.71
2017-07-08T09:03:08.501Z,58.51
2017-07-08T09:05:36.051Z,54.70
2017-07-08T09:08:03.656Z,55.05
2017-07-08T09:10:31.215Z,56.33
2017-07-08T09:12:58.723Z,55.38
2017-07-08T09:15:26.297Z,55.62
2017-07-08T09:17:53.821Z,55.23
2017-07-08T09:20:21.337Z,54.46
2017-07-08T09:22:48.868Z,52.99
2017-07-08T09:25:16.387Z,50.84
2017-07-08T09:27:43.993Z,51.05
2017-07-08T09:30:11.544Z,51.87
2017-07-08T09:32:39.331Z,52.55
2017-07-08T09:35:06.844Z,51.54
2017-07-08T09:37:34.369Z,51.79
2017-07-08T09:40:01.939Z,51.39
2017-07-08T09:42:29.450Z,51.42
2017-07-08T09:44:57.005Z,51.29
2017-07-08T09:47:24.537Z,50.73
2017-07-08T09:49:52.107Z,52.46
2017-07-08T09:52:19.662Z,49.62
2017-07-08T09:54:47.207Z,49.39
2017-07-08T09:57:14.754Z,49.13
2017-07-08T09:59:42.324Z,48.92
2017-07-08T10:02:09.853Z,48.89
2017-07-08T10:04:37.387Z,47.89
2017-07-08T10:07:04.979Z,48.08
2017-07-08T10:09:32.509Z,47.67
2017-07-08T10:12:00.059Z,47.91
2017-07-08T10:14:27.588Z,47.84
2017-07-08T10:16:55.152Z,47.32
2017-07-08T10:19:22.657Z,46.59
2017-07-08T10:21:50.231Z,46.79
2017-07-08T10:24:17.761Z,45.94
2017-07-08T10:26:45.317Z,46.65
2017-07-08T10:29:12.865Z,45.96
2017-07-08T10:31:40.450Z,44.73
2017-07-08T10:34:07.964Z,45.27
2017-07-08T10:36:35.515Z,42.08
2017-07-08T10:39:03.084Z,42.17
2017-07-08T10:41:30.620Z,41.35
2017-07-08T10:43:58.183Z,42.44
2017-07-08T10:46:25.730Z,42.07
2017-07-08T10:48:53.276Z,43.49
2017-07-08T10:51:20.868Z,44.57
2017-07-08T10:53:48.421Z,41.30
2017-07-08T10:56:15.956Z,41.86
2017-07-08T10:58:43.503Z,42.22
2017-07-08T11:01:11.042Z,42.74
2017-07-08T11:03:38.597Z,42.85
2017-07-08T11:06:06.119Z,43.58
2017-07-08T11:08:33.670Z,44.50
2017-07-08T11:11:01.186Z,43.63
2017-07-08T11:13:28.728Z,43.45
2017-07-08T11:15:56.246Z,42.34
2017-07-08T11:18:23.965Z,41.41
2017-07-08T11:20:51.489Z,40.95
2017-07-08T11:23:19.017Z,40.89
2017-07-08T11:25:46.552Z,41.62
2017-07-08T11:28:14.076Z,40.54
2017-07-08T11:30:41.618Z,39.92
2017-07-08T11:33:09.183Z,39.81
2017-07-08T11:35:36.711Z,40.17
2017-07-08T11:38:04.224Z,40.99
2017-07-08T11:40:31.772Z,40.58
2017-07-08T11:42:59.340Z,41.94
2017-07-08T11:45:26.863Z,41.90
2017-07-08T11:47:54.433Z,38.80
2017-07-08T11:50:21.961Z,41.40
2017-07-08T11:52:49.475Z,39.40
2017-07-08T11:55:17.082Z,40.48
2017-07-08T11:57:44.600Z,41.04
2017-07-08T12:00:12.159Z,40.69
2017-07-08T12:02:39.664Z,41.28
2017-07-08T12:05:07.220Z,39.70
2017-07-08T12:07:34.746Z,39.83
2017-07-08T12:10:02.301Z,39.32
2017-07-08T12:12:29.824Z,39.50
2017-07-08T12:14:57.382Z,38.87
2017-07-08T12:17:24.906Z,39.50
2017-07-08T12:19:52.629Z,40.52
2017-07-08T12:22:20.156Z,39.18
2017-07-08T12:24:47.684Z,40.76
2017-07-08T12:27:15.232Z,39.49
2017-07-08T12:29:43.660Z,38.22
2017-07-08T12:32:11.199Z,37.88
2017-07-08T12:34:38.720Z,37.52
2017-07-08T12:37:06.383Z,37.22
2017-07-08T12:39:33.925Z,36.71
2017-07-08T12:42:01.665Z,36.96
2017-07-08T12:44:29.192Z,37.11
2017-07-08T12:46:56.768Z,36.74
2017-07-08T12:49:24.283Z,36.98
2017-07-08T12:51:51.839Z,36.25
2017-07-08T12:54:19.358Z,39.19
2017-07-08T12:56:46.887Z,37.03
2017-07-08T12:59:14.423Z,36.57
2017-07-08T13:01:42.125Z,37.47
2017-07-08T13:04:09.670Z,37.21
2017-07-08T13:06:37.187Z,37.58
2017-07-08T13:09:04.741Z,37.24
2017-07-08T13:11:32.260Z,37.67
2017-07-08T13:13:59.799Z,37.80
2017-07-08T13:16:27.324Z,38.53
2017-07-08T13:18:55.007Z,37.80
2017-07-08T13:21:22.616Z,38.04
2017-07-08T13:23:50.239Z,37.67
2017-07-08T13:26:17.773Z,37.25
2017-07-08T13:28:45.451Z,37.00
2017-07-08T13:31:13.032Z,37.26
2017-07-08T13:33:40.552Z,37.50
2017-07-08T13:36:08.116Z,37.99
2017-07-08T13:38:35.637Z,38.11
2017-07-08T13:41:03.178Z,37.61
2017-07-08T13:43:30.701Z,37.84
2017-07-08T13:45:58.256Z,38.66
2017-07-08T13:48:25.774Z,38.20
2017-07-08T13:50:53.333Z,38.00
2017-07-08T13:53:20.892Z,37.89
2017-07-08T13:55:48.436Z,37.12
2017-07-08T13:58:15.948Z,37.04
2017-07-08T14:00:43.531Z,36.63
2017-07-08T14:03:11.046Z,36.50
2017-07-08T14:05:38.560Z,36.74
2017-07-08T14:08:06.112Z,35.23
2017-07-08T14:10:33.716Z,35.18
2017-07-08T14:13:01.214Z,34.37
2017-07-08T14:15:28.696Z,32.61
2017-07-08T14:17:56.984Z,32.87
2017-07-08T14:22:58.343Z,32.98
2017-07-08T14:25:25.861Z,32.83
2017-07-08T14:27:53.427Z,33.00
2017-07-08T14:30:20.936Z,32.38
2017-07-08T14:32:48.533Z,33.05
2017-07-08T14:35:16.155Z,32.11
2017-07-08T14:37:43.745Z,31.39
2017-07-08T14:40:11.327Z,31.18
2017-07-08T14:42:38.843Z,31.59
2017-07-08T14:45:06.412Z,31.26
2017-07-08T14:47:33.996Z,31.59
2017-07-08T14:50:01.666Z,32.48
2017-07-08T14:52:29.329Z,32.60
2017-07-08T14:54:56.877Z,32.58
2017-07-08T14:57:24.400Z,33.44
2017-07-08T14:59:52.203Z,33.67
2017-07-08T15:02:19.727Z,34.96
2017-07-08T15:04:47.262Z,35.59
2017-07-08T15:07:14.804Z,36.05
2017-07-08T15:09:42.365Z,35.70
2017-07-08T15:12:09.885Z,35.94
2017-07-08T15:14:37.422Z,36.72
2017-07-08T15:17:05.115Z,36.04
2017-07-08T15:19:32.630Z,33.51
2017-07-08T15:22:00.175Z,32.71
2017-07-08T15:24:27.705Z,33.27
2017-07-08T15:26:55.260Z,32.58
2017-07-08T15:29:22.797Z,31.89
2017-07-08T15:31:50.347Z,32.85
2017-07-08T15:34:17.885Z,33.69
2017-07-08T15:36:45.476Z,32.64
2017-07-08T15:39:13.018Z,32.25
